Time;durP1;ratioP1;P1;durP2;ratioP2;P2;SDS_P1;SDS_P2;PMS_P1;PMS_P2;Temp;Humidity;BMP_temperature;BMP_pressure;BME280_temperature;BME280_humidity;BME280_pressure;Samples;Min_cycle;Max_cycle;Signal;HPM_P1;HPM_P2
2024/01/24 00:00:28;;;;;;;52.65;28.42;;;;;;;-2.36;99.66;101148.53;5087638;28;20108;-76
2024/01/24 00:02:53;;;;;;;47.33;28.77;;;;;;;-2.13;97.67;101157.34;5069326;28;20056;-77
2024/01/24 00:05:18;;;;;;;59.00;35.25;;;;;;;-2.45;100.00;101155.25;5068279;28;20107;-78
2024/01/24 00:07:44;;;;;;;50.88;27.35;;;;;;;-2.47;100.00;101176.22;5067783;28;20123;-77
2024/01/24 00:10:11;;;;;;;44.65;25.50;;;;;;;-2.16;99.50;101184.53;5068036;28;20021;-77
2024/01/24 00:12:36;;;;;;;52.97;29.70;;;;;;;-2.59;98.11;101124.84;5086066;28;20055;-77
2024/01/24 00:15:02;;;;;;;48.97;28.83;;;;;;;-2.74;100.00;101173.75;5088529;28;20047;-76
2024/01/24 00:17:31;;;;;;;57.47;32.20;;;;;;;-2.36;100.00;101185.09;5088603;28;20374;-76
2024/01/24 00:19:57;;;;;;;65.45;36.83;;;;;;;-2.53;100.00;101170.63;5088817;28;20075;-78
2024/01/24 00:22:22;;;;;;;57.20;29.38;;;;;;;-2.42;100.00;101171.50;5056488;28;20029;-76
2024/01/24 00:24:48;;;;;;;55.97;30.40;;;;;;;-2.52;100.00;101182.72;5070566;28;20029;-76
2024/01/24 00:27:13;;;;;;;50.75;27.98;;;;;;;-2.73;100.00;101164.97;5060046;28;20056;-76
2024/01/24 00:29:39;;;;;;;61.95;32.95;;;;;;;-3.06;100.00;101152.47;5077641;28;20507;-76
2024/01/24 00:32:05;;;;;;;53.63;28.92;;;;;;;-3.26;100.00;101104.22;5090963;28;20089;-76
2024/01/24 00:34:30;;;;;;;50.45;27.13;;;;;;;-2.75;100.00;101171.25;5096900;28;20028;-77
2024/01/24 00:36:56;;;;;;;50.00;26.55;;;;;;;-2.78;100.00;101171.44;5097821;28;20124;-76
2024/01/24 00:39:21;;;;;;;52.00;27.60;;;;;;;-2.66;100.00;101181.88;5097476;28;20040;-76
2024/01/24 00:41:47;;;;;;;49.15;26.35;;;;;;;-2.88;100.00;101166.88;5090701;28;20181;-77
2024/01/24 00:44:13;;;;;;;50.33;27.27;;;;;;;-2.52;100.00;101188.75;5076301;28;20406;-77
2024/01/24 00:46:38;;;;;;;52.35;26.25;;;;;;;-2.44;99.81;101185.63;5076399;28;20102;-77
2024/01/24 00:49:08;;;;;;;54.83;28.88;;;;;;;-2.49;98.07;101191.19;5088004;28;20043;-77
2024/01/24 00:51:34;;;;;;;57.65;29.70;;;;;;;-2.54;97.59;101185.41;5091938;28;20111;-77
2024/01/24 00:53:59;;;;;;;50.50;28.95;;;;;;;-2.70;97.77;101182.19;5057465;28;20055;-77
2024/01/24 00:56:24;;;;;;;58.58;29.33;;;;;;;-3.01;99.46;101162.59;5056541;28;20044;-77
2024/01/24 00:58:50;;;;;;;52.30;30.83;;;;;;;-2.85;100.00;101166.66;5055093;28;20397;-78
2024/01/24 01:01:15;;;;;;;64.50;39.78;;;;;;;-2.74;99.03;101193.78;5073877;28;20386;-77
2024/01/24 01:03:41;;;;;;;53.03;28.00;;;;;;;-2.67;97.57;101179.41;5075070;28;20035;-77
2024/01/24 01:06:06;;;;;;;54.00;29.38;;;;;;;-2.89;96.81;101162.56;5092963;28;20028;-77
2024/01/24 01:08:32;;;;;;;52.13;28.75;;;;;;;-2.75;97.31;101192.13;5086697;28;20036;-76
2024/01/24 01:10:57;;;;;;;53.78;27.30;;;;;;;-2.83;100.00;101190.03;5053931;28;20024;-77
2024/01/24 01:13:23;;;;;;;54.75;29.60;;;;;;;-2.84;100.00;101184.00;5089876;28;20081;-77
2024/01/24 01:15:49;;;;;;;43.80;25.95;;;;;;;-2.72;99.06;101177.06;5073103;28;20055;-77
2024/01/24 01:18:14;;;;;;;45.92;23.90;;;;;;;-2.91;98.86;101167.06;5091031;28;20039;-77
2024/01/24 01:20:39;;;;;;;49.40;24.15;;;;;;;-2.65;97.73;101172.28;5091245;28;20066;-77
2024/01/24 01:23:05;;;;;;;39.60;24.05;;;;;;;-2.85;98.73;101174.47;5089308;28;20060;-77
2024/01/24 01:25:30;;;;;;;41.05;23.02;;;;;;;-2.78;98.34;101171.44;5090815;28;20032;-76
2024/01/24 01:27:56;;;;;;;47.33;28.55;;;;;;;-2.84;99.46;101189.22;5090683;28;20029;-77
2024/01/24 01:30:23;;;;;;;51.00;31.88;;;;;;;-3.01;100.00;101171.25;5090604;28;20400;-77
2024/01/24 01:32:49;;;;;;;55.07;35.30;;;;;;;-3.08;100.00;101172.63;5090177;28;20148;-78
2024/01/24 01:35:14;;;;;;;54.05;34.22;;;;;;;-3.25;100.00;101163.28;5090365;28;20500;-76
2024/01/24 01:37:40;;;;;;;50.17;27.70;;;;;;;-3.17;100.00;101150.56;5090041;28;20055;-77
2024/01/24 01:40:09;;;;;;;42.40;22.65;;;;;;;-3.06;100.00;101168.13;5074644;28;20524;-77
2024/01/24 01:42:34;;;;;;;37.67;21.02;;;;;;;-3.42;100.00;101150.53;5072262;28;20103;-77
2024/01/24 01:45:00;;;;;;;31.52;19.70;;;;;;;-3.42;100.00;101156.59;5069975;28;20119;-77
2024/01/24 01:47:25;;;;;;;50.42;29.25;;;;;;;-3.43;100.00;101141.88;5070158;28;20056;-77
2024/01/24 01:49:52;;;;;;;45.63;26.23;;;;;;;-3.13;100.00;101145.97;5069747;28;20045;-76
2024/01/24 01:52:19;;;;;;;35.15;21.40;;;;;;;-3.05;100.00;101143.69;5072534;28;20031;-77
2024/01/24 01:54:47;;;;;;;34.13;20.45;;;;;;;-3.07;100.00;101148.16;5052236;28;20101;-77
2024/01/24 01:57:14;;;;;;;33.40;19.25;;;;;;;-3.05;100.00;101123.63;5069839;28;20021;-76
2024/01/24 01:59:43;;;;;;;35.78;19.48;;;;;;;-2.67;98.44;101161.13;5051871;28;20086;-77
2024/01/24 02:02:09;;;;;;;35.80;21.70;;;;;;;-3.26;99.73;101110.28;5071935;28;20055;-77
2024/01/24 02:04:35;;;;;;;31.27;17.08;;;;;;;-2.78;99.01;101171.44;5069348;28;20071;-77
2024/01/24 02:07:00;;;;;;;31.30;17.20;;;;;;;-2.67;97.74;101163.72;5069374;28;20063;-77
2024/01/24 02:09:26;;;;;;;38.40;19.25;;;;;;;-3.49;99.32;101129.25;5058073;28;20099;-77
2024/01/24 02:11:52;;;;;;;39.65;20.05;;;;;;;-3.48;100.00;101143.94;5088894;28;20027;-76
2024/01/24 02:14:17;;;;;;;32.90;19.10;;;;;;;-3.60;100.00;101153.41;5071508;28;20028;-76
2024/01/24 02:16:43;;;;;;;36.63;19.90;;;;;;;-3.67;100.00;101150.38;5068852;28;20047;-77
2024/01/24 02:19:08;;;;;;;34.45;19.40;;;;;;;-3.52;100.00;101163.34;5069137;28;20033;-77
2024/01/24 02:21:33;;;;;;;34.63;20.65;;;;;;;-3.84;100.00;101137.63;5068971;28;20097;-77
2024/01/24 02:24:00;;;;;;;38.88;20.42;;;;;;;-3.60;99.34;101142.97;5084779;28;20472;-77
2024/01/24 02:26:25;;;;;;;37.65;19.77;;;;;;;-3.64;100.00;101168.44;5071447;28;20171;-78
2024/01/24 02:28:51;;;;;;;32.50;19.05;;;;;;;-3.96;100.00;101143.59;5089360;28;20532;-77
2024/01/24 02:31:16;;;;;;;29.45;18.10;;;;;;;-3.73;99.25;101136.91;5070076;28;20033;-77
2024/01/24 02:33:42;;;;;;;38.92;21.58;;;;;;;-3.93;100.00;101153.84;5052862;28;20398;-77
2024/01/24 02:36:08;;;;;;;41.50;23.63;;;;;;;-3.61;100.00;101163.97;5069204;28;20029;-78
2024/01/24 02:38:33;;;;;;;41.30;22.90;;;;;;;-3.47;100.00;101175.16;5069140;28;20032;-77
2024/01/24 02:40:58;;;;;;;39.30;21.15;;;;;;;-3.59;100.00;101169.91;5084536;28;20031;-78
2024/01/24 02:43:24;;;;;;;35.47;20.05;;;;;;;-3.74;100.00;101146.50;5084226;28;20543;-78
2024/01/24 02:45:49;;;;;;;44.13;25.30;;;;;;;-3.38;100.00;101159.84;5070895;28;20024;-77
2024/01/24 02:48:15;;;;;;;42.80;22.52;;;;;;;-3.90;100.00;101131.03;5089149;28;21067;-77
2024/01/24 02:50:41;;;;;;;39.35;21.65;;;;;;;-4.13;100.00;101140.28;5077221;28;20032;-77
2024/01/24 02:53:06;;;;;;;37.63;21.58;;;;;;;-3.94;100.00;101131.31;5073955;28;20024;-77
2024/01/24 02:55:31;;;;;;;35.78;19.30;;;;;;;-3.89;100.00;101121.44;5089101;28;20535;-77
2024/01/24 02:57:57;;;;;;;35.40;19.00;;;;;;;-3.72;100.00;101149.84;5088555;28;20032;-77
2024/01/24 03:00:24;;;;;;;36.88;20.98;;;;;;;-3.65;100.00;101151.13;5079818;28;20107;-77
2024/01/24 03:02:50;;;;;;;32.03;19.35;;;;;;;-3.78;100.00;101165.91;5051376;28;20123;-76
2024/01/24 03:05:15;;;;;;;32.67;19.05;;;;;;;-3.68;100.00;101156.53;5068318;28;20127;-77
2024/01/24 03:07:41;;;;;;;34.05;19.23;;;;;;;-3.95;100.00;101164.34;5068171;28;20021;-77
2024/01/24 03:10:08;;;;;;;29.25;18.45;;;;;;;-3.97;100.00;101171.44;5055018;28;20126;-78
2024/01/24 03:12:33;;;;;;;36.65;19.70;;;;;;;-3.59;100.00;101159.47;5069822;28;20031;-78
2024/01/24 03:14:59;;;;;;;34.10;19.45;;;;;;;-3.53;100.00;101144.25;5088023;28;20035;-77
2024/01/24 03:17:25;;;;;;;33.80;19.85;;;;;;;-3.36;100.00;101168.41;5088519;28;20077;-78
2024/01/24 03:19:51;;;;;;;37.40;21.15;;;;;;;-3.28;100.00;101147.84;5069788;28;20075;-77
2024/01/24 03:22:16;;;;;;;39.25;22.23;;;;;;;-3.27;100.00;101155.59;5070161;28;20090;-78
2024/01/24 03:24:41;;;;;;;40.63;22.27;;;;;;;-3.37;100.00;101154.53;5074381;28;20031;-77
2024/01/24 03:27:07;;;;;;;39.58;22.90;;;;;;;-3.48;100.00;101141.34;5067722;28;20559;-77
2024/01/24 03:29:32;;;;;;;41.53;21.52;;;;;;;-3.42;100.00;101122.69;5067500;28;20025;-78
2024/01/24 03:31:58;;;;;;;34.78;20.50;;;;;;;-3.21;100.00;101169.13;5068288;28;20035;-77
2024/01/24 03:34:24;;;;;;;42.38;25.75;;;;;;;-3.21;100.00;101163.91;5079734;28;20127;-78
2024/01/24 03:36:49;;;;;;;36.67;21.17;;;;;;;-3.16;100.00;101161.84;5087825;28;20028;-78
2024/01/24 03:39:14;;;;;;;41.63;21.98;;;;;;;-3.19;100.00;101156.81;5088073;28;20039;-77
2024/01/24 03:41:40;;;;;;;36.80;21.48;;;;;;;-3.11;100.00;101175.41;5070478;28;20453;-77
2024/01/24 03:44:05;;;;;;;40.30;24.45;;;;;;;-3.26;100.00;101156.41;5086561;28;20736;-77
2024/01/24 03:46:31;;;;;;;38.47;21.38;;;;;;;-3.17;100.00;101175.81;5087397;28;20032;-77
2024/01/24 03:48:56;;;;;;;40.85;22.38;;;;;;;-3.11;100.00;101154.53;5086859;28;20024;-77
2024/01/24 03:51:24;;;;;;;39.13;22.02;;;;;;;-3.21;100.00;101171.75;5087785;28;20024;-77
2024/01/24 03:53:51;;;;;;;37.65;22.65;;;;;;;-3.15;100.00;101200.03;5066190;28;20118;-77
2024/01/24 03:56:17;;;;;;;85.18;55.70;;;;;;;-3.17;100.00;101188.88;5076403;28;20032;-78
2024/01/24 03:58:42;;;;;;;43.58;24.10;;;;;;;-3.12;100.00;101168.53;5059207;28;20191;-78
2024/01/24 04:01:07;;;;;;;37.72;22.25;;;;;;;-3.25;100.00;101158.06;5059475;28;20111;-77
2024/01/24 04:03:33;;;;;;;44.33;24.13;;;;;;;-3.13;100.00;101187.72;5059781;28;20127;-78
2024/01/24 04:05:58;;;;;;;51.00;32.97;;;;;;;-3.34;100.00;101184.78;5076728;28;20032;-78
2024/01/24 04:08:24;;;;;;;50.10;31.55;;;;;;;-3.27;100.00;101171.22;5060237;28;20029;-77
2024/01/24 04:10:49;;;;;;;48.42;29.25;;;;;;;-3.31;100.00;101189.78;5076394;28;20444;-78
2024/01/24 04:13:14;;;;;;;67.45;40.30;;;;;;;-3.30;100.00;101171.41;5075956;28;20103;-77
2024/01/24 04:15:41;;;;;;;59.47;32.38;;;;;;;-3.08;100.00;101201.31;5069763;28;20131;-78
2024/01/24 04:18:06;;;;;;;80.32;44.53;;;;;;;-3.26;98.85;101192.94;5048935;28;20021;-77
2024/01/24 04:20:31;;;;;;;105.55;56.22;;;;;;;-3.50;100.00;101205.81;5058684;28;20581;-77
2024/01/24 04:22:58;;;;;;;68.38;40.72;;;;;;;-3.74;100.00;101188.22;5077799;28;20092;-77
2024/01/24 04:25:23;;;;;;;46.83;27.13;;;;;;;-3.76;100.00;101199.66;5078931;28;20035;-77
2024/01/24 04:27:48;;;;;;;83.47;46.90;;;;;;;-3.68;100.00;101203.47;5059602;28;20110;-78
2024/01/24 04:30:14;;;;;;;43.85;25.25;;;;;;;-3.86;100.00;101207.25;5087168;28;20106;-77
2024/01/24 04:32:40;;;;;;;57.67;29.98;;;;;;;-3.99;100.00;101214.16;5068800;28;20059;-77
2024/01/24 04:35:06;;;;;;;48.63;27.10;;;;;;;-4.09;100.00;101219.94;5085511;28;20119;-77
2024/01/24 04:37:32;;;;;;;49.15;28.83;;;;;;;-4.15;100.00;101196.03;5090462;28;20111;-76
2024/01/24 04:39:57;;;;;;;54.22;32.70;;;;;;;-3.90;100.00;101216.19;5072998;28;20024;-77
2024/01/24 04:42:22;;;;;;;51.92;29.55;;;;;;;-4.21;100.00;101230.28;5076632;28;20104;-76
2024/01/24 04:44:48;;;;;;;47.28;27.10;;;;;;;-4.25;100.00;101219.22;5074610;28;20412;-77
2024/01/24 04:47:13;;;;;;;60.38;39.97;;;;;;;-4.18;100.00;101215.31;5052897;28;20028;-77
2024/01/24 04:49:39;;;;;;;47.03;24.02;;;;;;;-4.34;100.00;101225.81;5071216;28;20052;-78
2024/01/24 04:52:05;;;;;;;66.50;35.45;;;;;;;-4.27;100.00;101228.88;5070729;28;20036;-78
2024/01/24 04:54:35;;;;;;;90.10;56.97;;;;;;;-3.96;100.00;101240.00;5073871;28;20032;-77
2024/01/24 04:57:02;;;;;;;42.25;23.27;;;;;;;-4.35;100.00;101220.72;5091252;28;20624;-76
2024/01/24 04:59:30;;;;;;;43.22;24.25;;;;;;;-4.54;100.00;101208.81;5090952;28;20058;-77
2024/01/24 05:01:55;;;;;;;;;;;;;;;-4.14;100.00;101237.63;5064525;28;20497;-77
2024/01/24 05:04:21;;;;;;;73.65;28.38;;;;;;;-4.47;100.00;101225.75;5072407;28;19973;-77
2024/01/24 05:06:46;;;;;;;206.90;59.92;;;;;;;-4.36;100.00;101221.66;5072019;28;20036;-77
2024/01/24 05:09:12;;;;;;;338.95;114.00;;;;;;;-4.29;100.00;101222.94;5070305;28;20397;-77
2024/01/24 05:11:40;;;;;;;280.55;94.43;;;;;;;-3.98;100.00;101252.28;5069862;28;20062;-77
2024/01/24 05:14:06;;;;;;;210.50;68.18;;;;;;;-3.90;100.00;101244.88;5070264;28;20036;-77
2024/01/24 05:16:32;;;;;;;164.18;57.58;;;;;;;-3.92;100.00;101231.91;5069682;28;20048;-77
2024/01/24 05:18:57;;;;;;;152.52;54.17;;;;;;;-3.73;100.00;101247.22;5089990;28;20142;-77
2024/01/24 05:21:23;;;;;;;147.73;49.45;;;;;;;-3.66;100.00;101245.91;5088302;28;20031;-77
2024/01/24 05:23:49;;;;;;;133.80;55.53;;;;;;;-3.70;100.00;101252.25;5070233;28;20029;-77
2024/01/24 05:26:16;;;;;;;133.77;53.05;;;;;;;-3.63;100.00;101230.06;5072409;28;20047;-78
2024/01/24 05:28:42;;;;;;;123.30;54.38;;;;;;;-3.56;99.72;101237.50;5069683;28;20017;-77
2024/01/24 05:31:07;;;;;;;116.45;55.20;;;;;;;-3.54;100.00;101257.31;5069873;28;20051;-77
2024/01/24 05:33:33;;;;;;;113.15;57.38;;;;;;;-3.81;100.00;101246.88;5069652;28;20036;-77
2024/01/24 05:35:59;;;;;;;118.28;57.78;;;;;;;-3.50;100.00;101263.19;5053995;28;20497;-77
2024/01/24 05:38:24;;;;;;;98.82;53.50;;;;;;;-3.57;100.00;101251.47;5051481;28;20111;-78
2024/01/24 05:40:50;;;;;;;101.78;48.13;;;;;;;-3.63;100.00;101256.13;5069554;28;20025;-78
2024/01/24 05:43:15;;;;;;;86.13;45.47;;;;;;;-3.70;100.00;101269.66;5069430;28;20481;-77
2024/01/24 05:45:41;;;;;;;76.85;41.70;;;;;;;-3.81;100.00;101243.44;5071945;28;20484;-77
2024/01/24 05:48:06;;;;;;;82.45;42.95;;;;;;;-3.83;100.00;101246.13;5051376;28;20033;-77
2024/01/24 05:50:31;;;;;;;81.50;43.08;;;;;;;-3.85;100.00;101237.56;5069672;28;20078;-77
2024/01/24 05:52:58;;;;;;;101.82;47.03;;;;;;;-3.86;100.00;101246.34;5051500;28;20103;-77
2024/01/24 05:55:26;;;;;;;228.25;87.18;;;;;;;-3.85;100.00;101237.56;5071597;28;20128;-78
2024/01/24 05:57:52;;;;;;;189.32;78.03;;;;;;;-3.65;100.00;101244.97;5069155;28;20068;-77
2024/01/24 06:00:17;;;;;;;353.25;149.40;;;;;;;-3.48;100.00;101256.09;5069663;28;20158;-76
2024/01/24 06:02:43;;;;;;;165.10;73.18;;;;;;;-3.44;100.00;101273.22;5051187;28;20064;-77
2024/01/24 06:05:09;;;;;;;137.27;62.85;;;;;;;-3.52;100.00;101259.81;5070386;28;20109;-77
2024/01/24 06:07:34;;;;;;;78.22;41.50;;;;;;;-3.43;100.00;101227.97;5052888;28;20035;-77
2024/01/24 06:10:00;;;;;;;98.68;51.35;;;;;;;-3.53;100.00;101271.22;5069140;28;20029;-78
2024/01/24 06:12:26;;;;;;;77.22;40.00;;;;;;;-3.41;100.00;101278.25;5069103;28;20078;-77
2024/01/24 06:14:54;;;;;;;67.45;36.90;;;;;;;-3.45;100.00;101267.16;5050671;28;20028;-76
2024/01/24 06:17:19;;;;;;;82.20;40.72;;;;;;;-3.29;99.91;101251.38;5088969;28;20028;-77
2024/01/24 06:19:45;;;;;;;83.28;43.30;;;;;;;-3.46;100.00;101280.28;5089053;28;20040;-78
2024/01/24 06:22:10;;;;;;;78.05;39.90;;;;;;;-3.27;100.00;101291.22;5087297;28;20020;-77
2024/01/24 06:24:37;;;;;;;71.68;38.85;;;;;;;-2.95;99.82;101298.72;5068899;28;20121;-77
2024/01/24 06:27:03;;;;;;;74.43;39.72;;;;;;;-3.02;99.59;101266.16;5084240;28;20031;-78
2024/01/24 06:29:29;;;;;;;70.10;37.45;;;;;;;-3.10;100.00;101271.03;5088848;28;20412;-77
2024/01/24 06:31:55;;;;;;;70.85;38.63;;;;;;;-3.02;100.00;101289.63;5070504;28;20504;-77
2024/01/24 06:34:21;;;;;;;96.40;45.95;;;;;;;-3.42;100.00;101270.50;5069269;28;20043;-78
2024/01/24 06:36:47;;;;;;;77.60;40.55;;;;;;;-2.93;100.00;101283.78;5061687;28;20020;-77
2024/01/24 06:39:13;;;;;;;97.30;47.47;;;;;;;-3.18;100.00;101279.34;5070508;28;20455;-76
2024/01/24 06:41:38;;;;;;;53.25;27.38;;;;;;;-3.01;100.00;101306.13;5088070;28;20035;-78
2024/01/24 06:44:05;;;;;;;50.17;25.73;;;;;;;-2.95;100.00;101308.34;5072812;28;20118;-77
2024/01/24 06:46:31;;;;;;;49.80;26.52;;;;;;;-2.96;100.00;101320.56;5076052;28;20035;-77
2024/01/24 06:48:57;;;;;;;57.03;32.80;;;;;;;-2.64;100.00;101320.19;5088494;28;20024;-77
2024/01/24 06:51:22;;;;;;;63.20;35.10;;;;;;;-2.95;100.00;101314.38;5088535;28;20093;-77
2024/01/24 06:53:48;;;;;;;66.30;36.55;;;;;;;-2.85;100.00;101271.06;5076158;28;20127;-77
2024/01/24 06:56:13;;;;;;;53.67;31.48;;;;;;;-2.81;100.00;101302.22;5070783;28;20030;-76
2024/01/24 06:58:40;;;;;;;75.22;40.33;;;;;;;-2.84;100.00;101311.91;5067434;28;20098;-77
2024/01/24 07:01:06;;;;;;;61.47;31.75;;;;;;;-2.81;100.00;101294.38;5050152;28;20025;-78
2024/01/24 07:03:31;;;;;;;59.92;35.45;;;;;;;-2.39;100.00;101318.53;5081132;28;20046;-78
2024/01/24 07:05:57;;;;;;;57.08;32.10;;;;;;;-2.22;100.00;101311.22;5076441;28;20476;-77
2024/01/24 07:08:23;;;;;;;82.72;50.15;;;;;;;-2.16;100.00;101293.47;5077928;28;20032;-77
2024/01/24 07:10:48;;;;;;;65.47;32.47;;;;;;;-2.16;100.00;101276.00;5076725;28;20055;-77
2024/01/24 07:13:14;;;;;;;55.67;30.85;;;;;;;-1.94;100.00;101295.41;5062318;28;20115;-77
2024/01/24 07:15:39;;;;;;;57.15;31.27;;;;;;;-1.71;100.00;101299.84;5077009;28;20120;-77
2024/01/24 07:18:05;;;;;;;54.40;30.73;;;;;;;-1.44;100.00;101296.22;5080646;28;20081;-77
2024/01/24 07:20:30;;;;;;;51.13;28.90;;;;;;;-1.65;100.00;101309.88;5076268;28;20021;-77
2024/01/24 07:22:56;;;;;;;43.17;26.67;;;;;;;-1.46;100.00;101309.41;5075693;28;20425;-76
2024/01/24 07:25:21;;;;;;;43.75;27.00;;;;;;;-1.55;100.00;101299.59;5081744;28;20024;-76
2024/01/24 07:27:48;;;;;;;47.88;29.23;;;;;;;-1.44;100.00;101280.50;5086470;28;20028;-75
2024/01/24 07:30:15;;;;;;;57.53;31.83;;;;;;;-1.22;100.00;101296.31;5081086;28;20115;-75
2024/01/24 07:32:41;;;;;;;93.10;49.78;;;;;;;-0.78;100.00;101312.31;5067508;28;20075;-76
2024/01/24 07:35:09;;;;;;;67.53;40.63;;;;;;;-1.05;99.68;101260.22;5067462;28;20106;-77
2024/01/24 07:37:34;;;;;;;71.50;42.15;;;;;;;-0.64;98.48;101327.00;5069907;28;20028;-77
2024/01/24 07:40:00;;;;;;;85.25;49.38;;;;;;;-0.26;97.44;101326.72;5049403;28;20037;-76
2024/01/24 07:42:25;;;;;;;296.50;144.65;;;;;;;-0.27;97.26;101329.44;5056831;28;20504;-77
2024/01/24 07:44:51;;;;;;;77.82;47.88;;;;;;;-0.29;100.00;101310.38;5075282;28;20425;-76
2024/01/24 07:47:18;;;;;;;73.70;43.47;;;;;;;0.02;97.53;101344.72;5077215;28;20393;-77
2024/01/24 07:49:44;;;;;;;73.97;44.75;;;;;;;-0.08;95.94;101331.47;5077100;28;20078;-76
2024/01/24 07:52:09;;;;;;;76.68;48.28;;;;;;;0.16;96.87;101310.38;5075159;28;20504;-76
2024/01/24 07:54:35;;;;;;;79.35;48.13;;;;;;;0.33;97.42;101328.28;5080463;28;20025;-76
2024/01/24 07:57:01;;;;;;;76.90;45.72;;;;;;;0.40;96.21;101326.81;5074466;28;20033;-77
2024/01/24 07:59:27;;;;;;;78.97;46.47;;;;;;;0.65;94.42;101322.22;5078915;28;20016;-76
2024/01/24 08:01:52;;;;;;;87.18;51.08;;;;;;;0.54;94.43;101319.66;5073032;28;20031;-78
2024/01/24 08:04:18;;;;;;;91.88;54.55;;;;;;;0.93;91.44;101346.28;5067064;28;20028;-76
2024/01/24 08:06:45;;;;;;;172.13;106.63;;;;;;;1.26;88.63;101326.06;5068770;28;20039;-77
2024/01/24 08:09:11;;;;;;;86.45;50.50;;;;;;;1.13;90.35;101345.47;5067412;28;20509;-77
2024/01/24 08:11:36;;;;;;;78.45;47.33;;;;;;;1.28;90.43;101334.66;5072464;28;20109;-76
2024/01/24 08:14:01;;;;;;;72.97;42.72;;;;;;;1.21;90.53;101334.34;5071470;28;20083;-76
2024/01/24 08:16:27;;;;;;;72.68;44.47;;;;;;;1.54;87.62;101324.63;5070971;28;20131;-77
2024/01/24 08:18:54;;;;;;;66.00;40.83;;;;;;;1.60;89.08;101345.97;5073726;28;20028;-78
2024/01/24 08:21:20;;;;;;;68.47;42.22;;;;;;;1.79;86.90;101331.25;5052459;28;20044;-76
2024/01/24 08:23:45;;;;;;;76.35;46.38;;;;;;;9.13;65.96;101385.97;5073316;28;20020;-76
2024/01/24 08:26:10;;;;;;;71.38;44.60;;;;;;;10.68;56.96;101377.44;5091584;28;20455;-77
2024/01/24 08:28:36;;;;;;;74.47;44.22;;;;;;;11.82;50.52;101384.69;5089077;28;20035;-76
2024/01/24 08:31:01;;;;;;;68.60;39.92;;;;;;;11.50;53.33;101357.50;5090899;28;20032;-77
2024/01/24 08:33:27;;;;;;;57.92;38.80;;;;;;;13.26;47.89;101392.75;5072783;28;20040;-77
2024/01/24 08:35:52;;;;;;;53.83;36.22;;;;;;;14.67;43.42;101377.34;5070886;28;20040;-76
2024/01/24 08:38:17;;;;;;;50.33;34.03;;;;;;;12.85;44.93;101372.28;5072961;28;20025;-76
2024/01/24 08:40:43;;;;;;;46.85;35.33;;;;;;;10.64;52.89;101376.16;5071084;28;20035;-77
2024/01/24 08:43:09;;;;;;;54.17;37.97;;;;;;;9.52;56.42;101374.38;5070698;28;20111;-77
2024/01/24 08:45:37;;;;;;;48.08;35.03;;;;;;;10.84;53.16;101371.88;5070505;28;20044;-77
2024/01/24 08:48:03;;;;;;;45.63;32.22;;;;;;;9.33;52.57;101374.84;5078067;28;20335;-77
2024/01/24 08:50:28;;;;;;;51.40;34.25;;;;;;;7.38;60.93;101369.09;5090967;28;20096;-78
2024/01/24 08:52:53;;;;;;;64.57;52.63;;;;;;;6.93;64.14;101369.53;5090398;28;20020;-76
2024/01/24 08:55:19;;;;;;;63.95;44.03;;;;;;;6.39;68.05;101354.78;5078717;28;20498;-76
2024/01/24 08:57:44;;;;;;;57.40;39.83;;;;;;;5.87;72.23;101346.91;5075371;28;20047;-77
2024/01/24 09:00:11;;;;;;;53.65;37.22;;;;;;;5.71;73.92;101362.66;5091022;28;20030;-76
2024/01/24 09:02:37;;;;;;;60.03;41.72;;;;;;;5.94;78.52;101358.50;5090612;28;20024;-76
2024/01/24 09:05:03;;;;;;;58.75;39.85;;;;;;;9.95;61.13;101374.63;5090486;28;20036;-77
2024/01/24 09:07:28;;;;;;;57.58;37.50;;;;;;;8.24;64.16;101356.16;5090317;28;20417;-76
2024/01/24 09:09:54;;;;;;;47.40;29.52;;;;;;;7.42;66.18;101356.31;5089828;28;20032;-76
2024/01/24 09:12:19;;;;;;;43.47;25.67;;;;;;;7.02;69.51;101315.50;5090040;28;20024;-77
2024/01/24 09:14:45;;;;;;;33.40;21.27;;;;;;;7.24;70.98;101332.59;5090134;28;20502;-75
2024/01/24 09:17:13;;;;;;;31.17;20.48;;;;;;;7.34;71.52;101340.41;5090661;28;20031;-76
2024/01/24 09:19:42;;;;;;;31.83;22.73;;;;;;;7.42;69.59;101345.69;5089232;28;20111;-76
2024/01/24 09:22:07;;;;;;;;;;;;;;;7.45;69.21;101342.69;5090335;28;20024;-76
2024/01/24 09:24:33;;;;;;;26.40;17.27;;;;;;;7.41;70.25;101325.44;5087399;28;20505;-75
2024/01/24 09:26:58;;;;;;;22.50;13.85;;;;;;;7.43;70.47;101320.81;5070153;28;20067;-77
2024/01/24 09:29:23;;;;;;;33.33;26.17;;;;;;;7.70;68.38;101330.22;5054624;28;20032;-75
2024/01/24 09:31:49;;;;;;;20.42;13.90;;;;;;;7.59;71.02;101318.13;5070063;28;20492;-75
2024/01/24 09:34:15;;;;;;;24.85;12.02;;;;;;;7.71;67.60;101309.81;5069897;28;20074;-77
2024/01/24 09:36:41;;;;;;;20.17;12.73;;;;;;;7.57;68.84;101316.66;5079409;28;20044;-76
2024/01/24 09:39:09;;;;;;;19.20;12.02;;;;;;;7.80;69.69;101325.53;5082243;28;20514;-76
2024/01/24 09:41:43;;;;;;;23.88;15.05;;;;;;;8.00;68.71;101323.34;5079571;28;20028;-75
2024/01/24 09:44:11;;;;;;;18.13;11.88;;;;;;;7.94;66.77;101329.34;5077879;28;20056;-76
2024/01/24 09:46:37;;;;;;;18.45;11.10;;;;;;;8.01;67.39;101313.56;5080416;28;20036;-75
2024/01/24 09:49:05;;;;;;;16.23;10.23;;;;;;;7.99;66.81;101312.91;5077024;28;20024;-76
2024/01/24 09:51:34;;;;;;;18.23;11.53;;;;;;;7.91;68.80;101316.41;5075963;28;20089;-77
2024/01/24 09:54:07;;;;;;;15.02;10.57;;;;;;;7.97;68.56;101305.09;5075982;28;20083;-75
2024/01/24 09:56:37;;;;;;;18.25;9.73;;;;;;;7.90;67.90;101304.13;5078769;28;20024;-76
2024/01/24 09:59:04;;;;;;;18.52;10.05;;;;;;;8.06;66.36;101313.88;5079197;28;20035;-75
2024/01/24 10:01:33;;;;;;;16.27;10.10;;;;;;;8.17;67.79;101291.41;5078647;28;20027;-76
2024/01/24 10:04:00;;;;;;;16.17;10.00;;;;;;;8.39;66.82;101298.59;5068814;28;20028;-76
2024/01/24 10:06:27;;;;;;;17.05;10.40;;;;;;;8.60;67.37;101283.88;5089383;28;20032;-76
2024/01/24 10:08:53;;;;;;;17.02;10.10;;;;;;;8.75;66.05;101295.44;5083339;28;20024;-76
2024/01/24 10:11:19;;;;;;;18.05;10.35;;;;;;;8.61;67.03;101256.31;5051283;28;20025;-75
2024/01/24 10:13:44;;;;;;;17.08;10.25;;;;;;;8.67;65.38;101279.53;5069127;28;20093;-76
2024/01/24 10:16:10;;;;;;;15.40;9.75;;;;;;;8.81;65.40;101264.66;5050960;28;20048;-77
2024/01/24 10:18:35;;;;;;;18.17;11.07;;;;;;;9.03;66.31;101250.50;5072893;28;20115;-75
2024/01/24 10:21:04;;;;;;;19.50;12.43;;;;;;;9.47;64.68;101259.56;5089259;28;20040;-76
2024/01/24 10:23:30;;;;;;;21.48;13.68;;;;;;;9.37;64.40;101243.84;5088908;28;20032;-77
2024/01/24 10:25:57;;;;;;;23.60;19.52;;;;;;;9.77;64.12;101263.06;5088656;28;20028;-75
2024/01/24 10:28:23;;;;;;;12.50;8.80;;;;;;;9.58;61.87;101252.97;5088989;28;20063;-75
2024/01/24 10:30:51;;;;;;;29.00;23.17;;;;;;;9.80;65.22;101235.22;5088639;28;20059;-75
2024/01/24 10:33:17;;;;;;;16.63;10.02;;;;;;;10.11;61.00;101244.84;5088521;28;20507;-75
2024/01/24 10:35:42;;;;;;;16.83;12.32;;;;;;;10.21;60.52;101227.53;5083512;28;20060;-76
2024/01/24 10:38:12;;;;;;;72.32;64.85;;;;;;;10.34;59.46;101234.91;5069011;28;20029;-75
2024/01/24 10:40:41;;;;;;;16.40;10.30;;;;;;;10.37;59.12;101223.84;5086783;28;20032;-76
2024/01/24 10:43:12;;;;;;;17.88;11.55;;;;;;;10.67;59.05;101230.91;5088419;28;20027;-76
2024/01/24 10:45:43;;;;;;;26.20;20.40;;;;;;;10.91;57.50;101229.69;5088605;28;20050;-75
2024/01/24 10:48:10;;;;;;;21.15;14.85;;;;;;;10.83;56.13;101231.47;5088761;28;20026;-76
2024/01/24 10:50:40;;;;;;;30.90;24.42;;;;;;;10.71;57.44;101214.34;5068309;28;20028;-75
2024/01/24 10:53:06;;;;;;;22.58;18.95;;;;;;;10.75;57.87;101236.94;5088910;28;20165;-75
2024/01/24 10:55:33;;;;;;;19.45;15.38;;;;;;;10.72;56.33;101226.63;5087191;28;20024;-76
2024/01/24 10:57:59;;;;;;;14.32;10.82;;;;;;;11.25;54.59;101221.72;5068483;28;20085;-76
2024/01/24 11:00:28;;;;;;;14.68;10.95;;;;;;;11.20;54.76;101218.84;5072542;28;20040;-75